sensor_id;sensor_type;location;lat;lon;timestamp;pressure;altitude;pressure_sealevel;temperature;humidity
70916;BME280;58557;50.982;-3.222;2023-04-04T00:00:19;102094.90;;;10.00;46.18
70916;BME280;58557;50.982;-3.222;2023-04-04T00:02:45;102091.69;;;8.96;47.24
70916;BME280;58557;50.982;-3.222;2023-04-04T00:05:10;102092.94;;;8.45;47.19
70916;BME280;58557;50.982;-3.222;2023-04-04T00:07:35;102089.83;;;9.22;47.25
70916;BME280;58557;50.982;-3.222;2023-04-04T00:10:01;102091.54;;;9.36;45.84
70916;BME280;58557;50.982;-3.222;2023-04-04T00:12:26;102093.23;;;9.49;46.50
70916;BME280;58557;50.982;-3.222;2023-04-04T00:14:51;102093.22;;;8.99;46.75
70916;BME280;58557;50.982;-3.222;2023-04-04T00:17:16;102092.36;;;9.13;47.00
70916;BME280;58557;50.982;-3.222;2023-04-04T00:19:41;102094.53;;;9.05;47.48
70916;BME280;58557;50.982;-3.222;2023-04-04T00:22:06;102096.83;;;8.66;46.83
70916;BME280;58557;50.982;-3.222;2023-04-04T00:24:31;102095.95;;;7.74;49.12
70916;BME280;58557;50.982;-3.222;2023-04-04T00:26:56;102097.63;;;8.53;48.07
70916;BME280;58557;50.982;-3.222;2023-04-04T00:29:22;102095.61;;;8.71;48.10
70916;BME280;58557;50.982;-3.222;2023-04-04T00:31:47;102093.72;;;9.60;47.20
70916;BME280;58557;50.982;-3.222;2023-04-04T00:34:12;102091.90;;;9.46;46.34
70916;BME280;58557;50.982;-3.222;2023-04-04T00:36:38;102091.72;;;9.38;46.45
70916;BME280;58557;50.982;-3.222;2023-04-04T00:39:04;102090.38;;;9.12;46.58
70916;BME280;58557;50.982;-3.222;2023-04-04T00:41:29;102091.25;;;8.77;46.67
70916;BME280;58557;50.982;-3.222;2023-04-04T00:43:55;102092.28;;;8.66;47.07
70916;BME280;58557;50.982;-3.222;2023-04-04T00:46:20;102089.96;;;9.01;46.96
70916;BME280;58557;50.982;-3.222;2023-04-04T00:48:47;102088.76;;;8.53;46.87
70916;BME280;58557;50.982;-3.222;2023-04-04T00:51:11;102092.29;;;7.71;47.69
70916;BME280;58557;50.982;-3.222;2023-04-04T00:53:37;102088.26;;;8.04;48.32
70916;BME280;58557;50.982;-3.222;2023-04-04T00:56:02;102090.89;;;7.93;48.19
70916;BME280;58557;50.982;-3.222;2023-04-04T00:58:28;102089.07;;;8.15;47.66
70916;BME280;58557;50.982;-3.222;2023-04-04T01:00:53;102088.67;;;8.50;47.38
70916;BME280;58557;50.982;-3.222;2023-04-04T01:03:19;102090.58;;;8.62;47.46
70916;BME280;58557;50.982;-3.222;2023-04-04T01:05:44;102082.96;;;8.67;47.11
70916;BME280;58557;50.982;-3.222;2023-04-04T01:08:10;102086.81;;;8.00;48.02
70916;BME280;58557;50.982;-3.222;2023-04-04T01:10:35;102077.43;;;8.05;47.03
70916;BME280;58557;50.982;-3.222;2023-04-04T01:13:00;102086.65;;;7.07;51.03
70916;BME280;58557;50.982;-3.222;2023-04-04T01:15:26;102085.83;;;7.76;51.71
70916;BME280;58557;50.982;-3.222;2023-04-04T01:17:54;102078.92;;;6.42;53.74
70916;BME280;58557;50.982;-3.222;2023-04-04T01:20:21;102078.16;;;5.58;57.41
70916;BME280;58557;50.982;-3.222;2023-04-04T01:22:43;102069.95;;;6.01;56.67
70916;BME280;58557;50.982;-3.222;2023-04-04T01:25:08;102071.26;;;6.50;54.72
70916;BME280;58557;50.982;-3.222;2023-04-04T01:27:33;102072.23;;;5.82;57.36
70916;BME280;58557;50.982;-3.222;2023-04-04T01:29:58;102069.54;;;5.67;58.54
70916;BME280;58557;50.982;-3.222;2023-04-04T01:32:27;102075.27;;;4.46;63.14
70916;BME280;58557;50.982;-3.222;2023-04-04T01:34:55;102071.76;;;4.80;64.71
70916;BME280;58557;50.982;-3.222;2023-04-04T01:37:20;102068.17;;;5.49;62.06
70916;BME280;58557;50.982;-3.222;2023-04-04T01:39:42;102068.43;;;5.96;60.41
70916;BME280;58557;50.982;-3.222;2023-04-04T01:42:06;102066.75;;;6.20;56.87
70916;BME280;58557;50.982;-3.222;2023-04-04T01:44:31;102069.38;;;6.45;56.35
70916;BME280;58557;50.982;-3.222;2023-04-04T01:46:56;102074.26;;;5.68;57.89
70916;BME280;58557;50.982;-3.222;2023-04-04T01:49:22;102078.77;;;5.10;58.48
70916;BME280;58557;50.982;-3.222;2023-04-04T01:51:48;102085.65;;;4.22;60.75
70916;BME280;58557;50.982;-3.222;2023-04-04T01:54:13;102082.07;;;2.95;64.40
70916;BME280;58557;50.982;-3.222;2023-04-04T01:56:38;102078.62;;;4.39;61.12
70916;BME280;58557;50.982;-3.222;2023-04-04T01:59:04;102078.58;;;6.22;55.59
70916;BME280;58557;50.982;-3.222;2023-04-04T02:01:29;102080.96;;;6.82;51.68
70916;BME280;58557;50.982;-3.222;2023-04-04T02:03:54;102080.82;;;6.20;54.16
70916;BME280;58557;50.982;-3.222;2023-04-04T02:06:20;102077.95;;;5.85;55.94
70916;BME280;58557;50.982;-3.222;2023-04-04T02:08:45;102079.74;;;4.48;56.73
70916;BME280;58557;50.982;-3.222;2023-04-04T02:11:11;102073.35;;;6.58;52.72
70916;BME280;58557;50.982;-3.222;2023-04-04T02:13:36;102068.26;;;6.70;51.02
70916;BME280;58557;50.982;-3.222;2023-04-04T02:16:01;102063.89;;;6.66;50.90
70916;BME280;58557;50.982;-3.222;2023-04-04T02:18:26;102062.46;;;5.31;53.81
70916;BME280;58557;50.982;-3.222;2023-04-04T02:20:55;102060.48;;;5.82;53.61
70916;BME280;58557;50.982;-3.222;2023-04-04T02:23:17;102058.39;;;6.43;51.60
70916;BME280;58557;50.982;-3.222;2023-04-04T02:25:42;102056.14;;;6.07;52.74
70916;BME280;58557;50.982;-3.222;2023-04-04T02:28:08;102057.40;;;4.38;56.59
70916;BME280;58557;50.982;-3.222;2023-04-04T02:30:33;102058.04;;;5.44;55.84
70916;BME280;58557;50.982;-3.222;2023-04-04T02:32:58;102060.90;;;6.52;52.98
70916;BME280;58557;50.982;-3.222;2023-04-04T02:35:23;102063.19;;;4.92;56.72
70916;BME280;58557;50.982;-3.222;2023-04-04T02:37:49;102059.59;;;6.05;54.37
70916;BME280;58557;50.982;-3.222;2023-04-04T02:40:14;102061.57;;;7.21;52.39
70916;BME280;58557;50.982;-3.222;2023-04-04T02:42:42;102057.08;;;5.86;53.83
70916;BME280;58557;50.982;-3.222;2023-04-04T02:45:06;102055.51;;;7.11;51.38
70916;BME280;58557;50.982;-3.222;2023-04-04T02:47:31;102056.30;;;6.82;53.23
70916;BME280;58557;50.982;-3.222;2023-04-04T02:49:57;102062.39;;;5.64;53.79
70916;BME280;58557;50.982;-3.222;2023-04-04T02:52:22;102062.62;;;5.60;55.80
70916;BME280;58557;50.982;-3.222;2023-04-04T02:54:48;102061.03;;;6.06;54.89
70916;BME280;58557;50.982;-3.222;2023-04-04T02:57:13;102054.47;;;6.14;54.25
70916;BME280;58557;50.982;-3.222;2023-04-04T02:59:39;102051.64;;;6.01;54.84
70916;BME280;58557;50.982;-3.222;2023-04-04T03:02:05;102049.55;;;5.61;54.74
70916;BME280;58557;50.982;-3.222;2023-04-04T03:04:30;102050.76;;;5.66;54.16
70916;BME280;58557;50.982;-3.222;2023-04-04T03:06:55;102048.46;;;7.79;49.01
70916;BME280;58557;50.982;-3.222;2023-04-04T03:09:21;102042.92;;;7.07;49.62
70916;BME280;58557;50.982;-3.222;2023-04-04T03:11:46;102038.64;;;7.40;47.62
70916;BME280;58557;50.982;-3.222;2023-04-04T03:14:11;102041.40;;;6.56;48.86
70916;BME280;58557;50.982;-3.222;2023-04-04T03:16:37;102042.25;;;6.35;49.99
70916;BME280;58557;50.982;-3.222;2023-04-04T03:19:03;102039.36;;;7.14;49.50
70916;BME280;58557;50.982;-3.222;2023-04-04T03:21:28;102034.47;;;7.68;47.37
70916;BME280;58557;50.982;-3.222;2023-04-04T03:23:53;102034.04;;;7.32;47.97
70916;BME280;58557;50.982;-3.222;2023-04-04T03:26:19;102027.80;;;7.30;47.81
70916;BME280;58557;50.982;-3.222;2023-04-04T03:28:44;102025.74;;;7.21;48.40
70916;BME280;58557;50.982;-3.222;2023-04-04T03:31:10;102022.71;;;6.93;47.66
70916;BME280;58557;50.982;-3.222;2023-04-04T03:33:35;102024.13;;;7.34;46.86
70916;BME280;58557;50.982;-3.222;2023-04-04T03:36:01;102025.83;;;6.90;47.33
70916;BME280;58557;50.982;-3.222;2023-04-04T03:38:26;102023.41;;;7.21;47.20
70916;BME280;58557;50.982;-3.222;2023-04-04T03:41:00;102022.63;;;6.87;47.33
70916;BME280;58557;50.982;-3.222;2023-04-04T03:43:17;102020.29;;;6.70;47.21
70916;BME280;58557;50.982;-3.222;2023-04-04T03:45:43;102024.07;;;6.04;47.81
70916;BME280;58557;50.982;-3.222;2023-04-04T03:48:08;102026.65;;;6.64;48.56
70916;BME280;58557;50.982;-3.222;2023-04-04T03:50:35;102025.03;;;6.48;48.21
70916;BME280;58557;50.982;-3.222;2023-04-04T03:52:58;102021.54;;;6.25;48.80
70916;BME280;58557;50.982;-3.222;2023-04-04T03:55:24;102022.71;;;6.57;49.57
70916;BME280;58557;50.982;-3.222;2023-04-04T03:57:50;102022.89;;;6.55;49.50
70916;BME280;58557;50.982;-3.222;2023-04-04T04:00:15;102022.61;;;6.62;48.73
70916;BME280;58557;50.982;-3.222;2023-04-04T04:02:41;102025.17;;;7.16;47.91
70916;BME280;58557;50.982;-3.222;2023-04-04T04:05:07;102022.46;;;6.88;47.55
70916;BME280;58557;50.982;-3.222;2023-04-04T04:07:31;102019.27;;;6.93;47.56
70916;BME280;58557;50.982;-3.222;2023-04-04T04:09:57;102017.32;;;7.22;46.89
70916;BME280;58557;50.982;-3.222;2023-04-04T04:12:22;102014.80;;;7.31;46.22
70916;BME280;58557;50.982;-3.222;2023-04-04T04:14:48;102015.56;;;6.99;46.68
70916;BME280;58557;50.982;-3.222;2023-04-04T04:17:14;102015.49;;;7.16;46.99
70916;BME280;58557;50.982;-3.222;2023-04-04T04:19:39;102013.76;;;6.53;47.06
70916;BME280;58557;50.982;-3.222;2023-04-04T04:22:05;102014.65;;;4.96;51.38
70916;BME280;58557;50.982;-3.222;2023-04-04T04:24:30;102016.36;;;5.61;51.82
70916;BME280;58557;50.982;-3.222;2023-04-04T04:26:56;102014.74;;;6.10;50.06
70916;BME280;58557;50.982;-3.222;2023-04-04T04:29:22;102013.86;;;6.62;49.89
70916;BME280;58557;50.982;-3.222;2023-04-04T04:31:47;102010.62;;;6.36;49.60
70916;BME280;58557;50.982;-3.222;2023-04-04T04:34:13;102008.93;;;6.18;49.80
70916;BME280;58557;50.982;-3.222;2023-04-04T04:36:38;102009.48;;;6.20;49.29
70916;BME280;58557;50.982;-3.222;2023-04-04T04:39:04;102009.59;;;6.38;49.08
70916;BME280;58557;50.982;-3.222;2023-04-04T04:41:30;102011.13;;;6.43;48.47
70916;BME280;58557;50.982;-3.222;2023-04-04T04:43:55;102013.28;;;6.44;48.40
70916;BME280;58557;50.982;-3.222;2023-04-04T04:46:21;102012.24;;;6.23;48.98
70916;BME280;58557;50.982;-3.222;2023-04-04T04:48:46;102011.56;;;5.57;48.52
70916;BME280;58557;50.982;-3.222;2023-04-04T04:51:11;102009.53;;;6.04;49.12
70916;BME280;58557;50.982;-3.222;2023-04-04T04:53:37;102011.33;;;5.48;51.49
70916;BME280;58557;50.982;-3.222;2023-04-04T04:56:08;102009.71;;;6.33;49.24
70916;BME280;58557;50.982;-3.222;2023-04-04T04:58:29;102007.44;;;7.26;47.20
70916;BME280;58557;50.982;-3.222;2023-04-04T05:00:55;102003.46;;;6.33;48.44
70916;BME280;58557;50.982;-3.222;2023-04-04T05:03:20;101998.24;;;6.10;48.17
70916;BME280;58557;50.982;-3.222;2023-04-04T05:05:45;101997.64;;;6.52;47.63
70916;BME280;58557;50.982;-3.222;2023-04-04T05:08:11;102001.20;;;6.34;47.30
70916;BME280;58557;50.982;-3.222;2023-04-04T05:10:36;102001.52;;;5.11;48.72
70916;BME280;58557;50.982;-3.222;2023-04-04T05:13:02;102006.47;;;5.54;49.10
70916;BME280;58557;50.982;-3.222;2023-04-04T05:15:27;102003.78;;;5.85;49.01
70916;BME280;58557;50.982;-3.222;2023-04-04T05:17:53;102003.83;;;5.95;48.52
70916;BME280;58557;50.982;-3.222;2023-04-04T05:20:18;102005.88;;;5.42;49.57
70916;BME280;58557;50.982;-3.222;2023-04-04T05:22:44;102006.16;;;5.16;49.64
70916;BME280;58557;50.982;-3.222;2023-04-04T05:25:09;102010.69;;;6.28;49.83
70916;BME280;58557;50.982;-3.222;2023-04-04T05:27:34;102008.46;;;5.59;48.99
70916;BME280;58557;50.982;-3.222;2023-04-04T05:29:59;102009.55;;;5.33;50.73
70916;BME280;58557;50.982;-3.222;2023-04-04T05:32:24;102012.83;;;5.89;50.11
70916;BME280;58557;50.982;-3.222;2023-04-04T05:34:50;102013.14;;;5.60;48.87
70916;BME280;58557;50.982;-3.222;2023-04-04T05:37:21;102014.24;;;6.01;48.23
70916;BME280;58557;50.982;-3.222;2023-04-04T05:39:41;102012.87;;;5.25;50.34
70916;BME280;58557;50.982;-3.222;2023-04-04T05:42:06;102017.27;;;6.36;48.72
70916;BME280;58557;50.982;-3.222;2023-04-04T05:44:32;102017.38;;;5.83;48.15
70916;BME280;58557;50.982;-3.222;2023-04-04T05:46:58;102016.41;;;5.13;48.95
70916;BME280;58557;50.982;-3.222;2023-04-04T05:49:23;102017.33;;;5.65;49.50
70916;BME280;58557;50.982;-3.222;2023-04-04T05:51:49;102016.96;;;6.78;47.33
70916;BME280;58557;50.982;-3.222;2023-04-04T05:54:14;102014.85;;;6.30;47.20
70916;BME280;58557;50.982;-3.222;2023-04-04T05:56:39;102015.29;;;6.03;46.89
70916;BME280;58557;50.982;-3.222;2023-04-04T05:59:05;102013.88;;;6.43;47.01
70916;BME280;58557;50.982;-3.222;2023-04-04T06:01:30;102008.63;;;5.81;47.18
70916;BME280;58557;50.982;-3.222;2023-04-04T06:03:55;102009.89;;;6.18;47.73
70916;BME280;58557;50.982;-3.222;2023-04-04T06:06:20;102015.60;;;5.81;48.45
70916;BME280;58557;50.982;-3.222;2023-04-04T06:08:45;102015.34;;;5.86;48.02
70916;BME280;58557;50.982;-3.222;2023-04-04T06:11:10;102012.89;;;7.05;46.16
70916;BME280;58557;50.982;-3.222;2023-04-04T06:13:36;102013.07;;;5.61;48.14
70916;BME280;58557;50.982;-3.222;2023-04-04T06:16:01;102014.12;;;5.49;51.12
70916;BME280;58557;50.982;-3.222;2023-04-04T06:18:27;102013.13;;;6.34;49.16
70916;BME280;58557;50.982;-3.222;2023-04-04T06:20:52;102010.96;;;7.00;48.43
70916;BME280;58557;50.982;-3.222;2023-04-04T06:23:17;102012.93;;;6.45;48.40
70916;BME280;58557;50.982;-3.222;2023-04-04T06:25:43;102011.59;;;6.41;49.34
70916;BME280;58557;50.982;-3.222;2023-04-04T06:28:08;102009.91;;;6.94;48.55
70916;BME280;58557;50.982;-3.222;2023-04-04T06:30:34;102011.82;;;6.86;48.22
70916;BME280;58557;50.982;-3.222;2023-04-04T06:32:59;102013.80;;;6.65;48.82
70916;BME280;58557;50.982;-3.222;2023-04-04T06:35:24;102014.85;;;4.76;52.63
70916;BME280;58557;50.982;-3.222;2023-04-04T06:37:54;102018.26;;;6.34;50.35
70916;BME280;58557;50.982;-3.222;2023-04-04T06:40:16;102020.37;;;6.34;52.22
70916;BME280;58557;50.982;-3.222;2023-04-04T06:42:46;102026.64;;;4.70;53.96
70916;BME280;58557;50.982;-3.222;2023-04-04T06:45:07;102032.78;;;3.88;55.64
70916;BME280;58557;50.982;-3.222;2023-04-04T06:47:31;102034.37;;;4.78;55.04
70916;BME280;58557;50.982;-3.222;2023-04-04T06:49:57;102042.18;;;3.01;59.46
70916;BME280;58557;50.982;-3.222;2023-04-04T06:52:25;102041.08;;;4.54;56.76
70916;BME280;58557;50.982;-3.222;2023-04-04T06:54:49;102042.96;;;4.27;56.43
70916;BME280;58557;50.982;-3.222;2023-04-04T06:57:14;102037.83;;;5.41;56.84
70916;BME280;58557;50.982;-3.222;2023-04-04T06:59:40;102040.69;;;6.70;53.00
70916;BME280;58557;50.982;-3.222;2023-04-04T07:02:07;102038.46;;;6.94;51.86
70916;BME280;58557;50.982;-3.222;2023-04-04T07:04:31;102039.76;;;7.78;49.60
70916;BME280;58557;50.982;-3.222;2023-04-04T07:06:56;102029.58;;;8.05;48.20
70916;BME280;58557;50.982;-3.222;2023-04-04T07:09:22;102029.92;;;7.71;48.17
70916;BME280;58557;50.982;-3.222;2023-04-04T07:11:48;102028.57;;;8.56;47.25
70916;BME280;58557;50.982;-3.222;2023-04-04T07:14:13;102025.24;;;8.16;47.41
70916;BME280;58557;50.982;-3.222;2023-04-04T07:16:39;102026.90;;;8.12;49.49
70916;BME280;58557;50.982;-3.222;2023-04-04T07:19:04;102024.76;;;8.52;47.29
70916;BME280;58557;50.982;-3.222;2023-04-04T07:21:30;102024.84;;;7.97;48.53
70916;BME280;58557;50.982;-3.222;2023-04-04T07:23:55;102032.07;;;8.21;48.63
70916;BME280;58557;50.982;-3.222;2023-04-04T07:26:20;102037.31;;;7.73;50.94
70916;BME280;58557;50.982;-3.222;2023-04-04T07:28:45;102032.53;;;8.14;52.30
70916;BME280;58557;50.982;-3.222;2023-04-04T07:31:11;102041.74;;;6.36;52.08
70916;BME280;58557;50.982;-3.222;2023-04-04T07:33:37;102047.03;;;7.09;50.35
70916;BME280;58557;50.982;-3.222;2023-04-04T07:36:02;102049.34;;;7.75;51.42
70916;BME280;58557;50.982;-3.222;2023-04-04T07:38:28;102042.44;;;8.12;50.13
70916;BME280;58557;50.982;-3.222;2023-04-04T07:40:53;102036.79;;;10.41;46.26
70916;BME280;58557;50.982;-3.222;2023-04-04T07:43:19;102035.61;;;10.77;47.03
70916;BME280;58557;50.982;-3.222;2023-04-04T07:45:44;102040.30;;;11.13;42.74
70916;BME280;58557;50.982;-3.222;2023-04-04T07:48:10;102043.92;;;11.83;41.80
70916;BME280;58557;50.982;-3.222;2023-04-04T07:50:35;102044.10;;;11.21;40.81
70916;BME280;58557;50.982;-3.222;2023-04-04T07:53:00;102047.39;;;11.31;41.09
70916;BME280;58557;50.982;-3.222;2023-04-04T07:55:26;102050.07;;;11.10;41.15
70916;BME280;58557;50.982;-3.222;2023-04-04T07:57:52;102050.73;;;11.33;40.64
70916;BME280;58557;50.982;-3.222;2023-04-04T08:00:17;102049.69;;;11.10;41.10
70916;BME280;58557;50.982;-3.222;2023-04-04T08:02:43;102048.39;;;10.77;41.73
70916;BME280;58557;50.982;-3.222;2023-04-04T08:05:08;102052.88;;;9.36;43.81
70916;BME280;58557;50.982;-3.222;2023-04-04T08:07:32;102060.36;;;8.53;47.13
70916;BME280;58557;50.982;-3.222;2023-04-04T08:09:57;102062.74;;;8.36;48.53
70916;BME280;58557;50.982;-3.222;2023-04-04T08:12:23;102062.88;;;8.89;47.50
70916;BME280;58557;50.982;-3.222;2023-04-04T08:14:48;102058.61;;;8.85;47.14
70916;BME280;58557;50.982;-3.222;2023-04-04T08:17:14;102058.72;;;9.00;47.77
70916;BME280;58557;50.982;-3.222;2023-04-04T08:19:40;102055.80;;;9.72;45.68
70916;BME280;58557;50.982;-3.222;2023-04-04T08:22:05;102052.13;;;10.22;45.67
70916;BME280;58557;50.982;-3.222;2023-04-04T08:24:31;102056.29;;;10.19;44.24
70916;BME280;58557;50.982;-3.222;2023-04-04T08:26:57;102056.05;;;10.78;44.12
70916;BME280;58557;50.982;-3.222;2023-04-04T08:29:21;102055.43;;;12.42;41.58
70916;BME280;58557;50.982;-3.222;2023-04-04T08:31:46;102049.26;;;13.20;39.64
70916;BME280;58557;50.982;-3.222;2023-04-04T08:34:12;102052.72;;;13.40;40.12
70916;BME280;58557;50.982;-3.222;2023-04-04T08:36:38;102052.12;;;13.30;39.24
70916;BME280;58557;50.982;-3.222;2023-04-04T08:39:04;102047.98;;;13.99;38.71
70916;BME280;58557;50.982;-3.222;2023-04-04T08:41:29;102046.73;;;12.81;39.27
70916;BME280;58557;50.982;-3.222;2023-04-04T08:43:56;102044.98;;;13.21;39.51
70916;BME280;58557;50.982;-3.222;2023-04-04T08:46:21;102051.24;;;13.44;38.63
70916;BME280;58557;50.982;-3.222;2023-04-04T08:48:45;102053.58;;;13.72;37.93
70916;BME280;58557;50.982;-3.222;2023-04-04T08:51:13;102053.44;;;15.38;34.76
70916;BME280;58557;50.982;-3.222;2023-04-04T08:53:38;102056.68;;;13.99;36.13
70916;BME280;58557;50.982;-3.222;2023-04-04T08:56:03;102054.45;;;14.12;36.16
70916;BME280;58557;50.982;-3.222;2023-04-04T08:58:28;102050.00;;;14.38;36.98
70916;BME280;58557;50.982;-3.222;2023-04-04T09:00:54;102046.18;;;14.68;36.09
70916;BME280;58557;50.982;-3.222;2023-04-04T09:03:24;102045.79;;;13.74;38.20
70916;BME280;58557;50.982;-3.222;2023-04-04T09:05:45;102044.54;;;13.91;39.14
70916;BME280;58557;50.982;-3.222;2023-04-04T09:08:10;102044.31;;;12.13;40.95
70916;BME280;58557;50.982;-3.222;2023-04-04T09:10:36;102045.14;;;12.53;42.58
70916;BME280;58557;50.982;-3.222;2023-04-04T09:13:02;102044.37;;;12.93;40.21
70916;BME280;58557;50.982;-3.222;2023-04-04T09:15:26;102049.81;;;12.52;41.62
70916;BME280;58557;50.982;-3.222;2023-04-04T09:17:52;102046.76;;;12.59;42.13
70916;BME280;58557;50.982;-3.222;2023-04-04T09:20:35;102047.38;;;13.29;40.41
70916;BME280;58557;50.982;-3.222;2023-04-04T09:22:44;102043.04;;;13.73;40.89
70916;BME280;58557;50.982;-3.222;2023-04-04T09:25:09;102040.87;;;14.27;42.08
70916;BME280;58557;50.982;-3.222;2023-04-04T09:27:34;102040.63;;;14.50;38.73
70916;BME280;58557;50.982;-3.222;2023-04-04T09:30:02;102040.42;;;14.59;38.24
70916;BME280;58557;50.982;-3.222;2023-04-04T09:32:25;102037.60;;;14.89;37.54
70916;BME280;58557;50.982;-3.222;2023-04-04T09:34:51;102039.46;;;14.59;37.70
70916;BME280;58557;50.982;-3.222;2023-04-04T09:37:18;102043.94;;;13.15;40.89
70916;BME280;58557;50.982;-3.222;2023-04-04T09:39:43;102042.73;;;13.68;40.16
70916;BME280;58557;50.982;-3.222;2023-04-04T09:42:08;102045.65;;;14.46;39.29
70916;BME280;58557;50.982;-3.222;2023-04-04T09:44:35;102045.40;;;15.09;39.53
70916;BME280;58557;50.982;-3.222;2023-04-04T09:47:05;102050.18;;;16.00;36.77
70916;BME280;58557;50.982;-3.222;2023-04-04T09:49:25;102048.44;;;15.47;37.02
70916;BME280;58557;50.982;-3.222;2023-04-04T09:51:52;102049.55;;;13.95;40.71
70916;BME280;58557;50.982;-3.222;2023-04-04T09:54:20;102047.54;;;14.34;39.70
70916;BME280;58557;50.982;-3.222;2023-04-04T09:56:41;102047.99;;;14.78;39.17
70916;BME280;58557;50.982;-3.222;2023-04-04T09:59:06;102046.15;;;13.94;39.94
70916;BME280;58557;50.982;-3.222;2023-04-04T10:01:32;102046.14;;;14.28;42.01
70916;BME280;58557;50.982;-3.222;2023-04-04T10:03:57;102044.90;;;15.52;37.37
70916;BME280;58557;50.982;-3.222;2023-04-04T10:06:23;102041.55;;;14.56;38.78
70916;BME280;58557;50.982;-3.222;2023-04-04T10:08:48;102041.39;;;14.82;38.37
70916;BME280;58557;50.982;-3.222;2023-04-04T10:13:39;102041.57;;;15.89;38.16
70916;BME280;58557;50.982;-3.222;2023-04-04T10:16:05;102033.98;;;14.08;40.04
70916;BME280;58557;50.982;-3.222;2023-04-04T10:18:31;102037.88;;;15.26;37.70
70916;BME280;58557;50.982;-3.222;2023-04-04T10:20:57;102042.11;;;16.63;34.66
70916;BME280;58557;50.982;-3.222;2023-04-04T10:23:21;102045.64;;;17.16;34.48
70916;BME280;58557;50.982;-3.222;2023-04-04T10:25:46;102038.66;;;16.81;34.06
70916;BME280;58557;50.982;-3.222;2023-04-04T10:28:11;102037.28;;;17.89;30.83
70916;BME280;58557;50.982;-3.222;2023-04-04T10:30:40;102039.47;;;16.20;34.47
70916;BME280;58557;50.982;-3.222;2023-04-04T10:33:06;102039.45;;;16.55;32.32
70916;BME280;58557;50.982;-3.222;2023-04-04T10:35:28;102044.26;;;16.52;31.29
70916;BME280;58557;50.982;-3.222;2023-04-04T10:37:57;102048.09;;;16.89;31.76
70916;BME280;58557;50.982;-3.222;2023-04-04T10:40:21;102042.28;;;16.01;32.30
70916;BME280;58557;50.982;-3.222;2023-04-04T10:42:45;102040.16;;;17.67;31.45
70916;BME280;58557;50.982;-3.222;2023-04-04T10:45:10;102048.93;;;16.71;30.89
70916;BME280;58557;50.982;-3.222;2023-04-04T10:47:35;102049.07;;;16.84;28.17
70916;BME280;58557;50.982;-3.222;2023-04-04T10:50:00;102045.99;;;17.20;27.76
70916;BME280;58557;50.982;-3.222;2023-04-04T10:52:27;102050.90;;;18.03;27.52
70916;BME280;58557;50.982;-3.222;2023-04-04T10:54:53;102051.99;;;16.44;29.16
70916;BME280;58557;50.982;-3.222;2023-04-04T10:57:16;102050.21;;;16.38;29.93
70916;BME280;58557;50.982;-3.222;2023-04-04T10:59:55;102041.71;;;16.86;29.03
70916;BME280;58557;50.982;-3.222;2023-04-04T11:02:07;102043.46;;;17.30;30.24
70916;BME280;58557;50.982;-3.222;2023-04-04T11:04:33;102045.05;;;17.56;29.14
70916;BME280;58557;50.982;-3.222;2023-04-04T11:07:10;102046.58;;;17.18;29.68
70916;BME280;58557;50.982;-3.222;2023-04-04T11:14:14;102040.33;;;17.98;28.39
70916;BME280;58557;50.982;-3.222;2023-04-04T11:16:45;102036.46;;;17.42;28.90
70916;BME280;58557;50.982;-3.222;2023-04-04T11:19:05;102030.24;;;17.17;29.27
70916;BME280;58557;50.982;-3.222;2023-04-04T11:21:31;102034.78;;;16.11;31.32
70916;BME280;58557;50.982;-3.222;2023-04-04T11:24:12;102027.24;;;17.69;30.53
70916;BME280;58557;50.982;-3.222;2023-04-04T11:26:33;102030.77;;;16.95;30.61
70916;BME280;58557;50.982;-3.222;2023-04-04T11:28:47;102025.61;;;17.64;29.76
70916;BME280;58557;50.982;-3.222;2023-04-04T11:31:23;102020.97;;;17.24;30.62
70916;BME280;58557;50.982;-3.222;2023-04-04T11:36:04;102012.98;;;17.78;29.50
70916;BME280;58557;50.982;-3.222;2023-04-04T11:38:28;102015.93;;;16.85;29.76
70916;BME280;58557;50.982;-3.222;2023-04-04T11:40:54;102018.32;;;17.06;30.33
70916;BME280;58557;50.982;-3.222;2023-04-04T11:43:19;102017.11;;;15.73;31.05
70916;BME280;58557;50.982;-3.222;2023-04-04T11:45:44;102010.06;;;16.80;30.97
70916;BME280;58557;50.982;-3.222;2023-04-04T11:48:10;102004.70;;;17.04;30.57
70916;BME280;58557;50.982;-3.222;2023-04-04T11:50:38;102001.12;;;16.86;30.25
70916;BME280;58557;50.982;-3.222;2023-04-04T11:53:05;101997.45;;;16.13;30.95
70916;BME280;58557;50.982;-3.222;2023-04-04T11:55:26;101996.14;;;16.28;32.77
70916;BME280;58557;50.982;-3.222;2023-04-04T11:57:52;101987.93;;;16.87;33.24
70916;BME280;58557;50.982;-3.222;2023-04-04T12:00:28;101989.59;;;16.51;31.57
70916;BME280;58557;50.982;-3.222;2023-04-04T12:02:43;101985.16;;;16.69;30.81
70916;BME280;58557;50.982;-3.222;2023-04-04T12:05:11;101980.27;;;16.81;30.92
70916;BME280;58557;50.982;-3.222;2023-04-04T12:07:34;101978.02;;;16.85;32.25
70916;BME280;58557;50.982;-3.222;2023-04-04T12:09:59;101973.86;;;16.86;32.45
70916;BME280;58557;50.982;-3.222;2023-04-04T12:12:25;101973.49;;;16.92;31.50
70916;BME280;58557;50.982;-3.222;2023-04-04T12:14:49;101970.43;;;17.04;31.33
70916;BME280;58557;50.982;-3.222;2023-04-04T12:17:15;101966.19;;;17.72;29.31
70916;BME280;58557;50.982;-3.222;2023-04-04T12:19:42;101968.51;;;16.91;29.62
70916;BME280;58557;50.982;-3.222;2023-04-04T12:22:06;101969.67;;;17.71;29.45
70916;BME280;58557;50.982;-3.222;2023-04-04T12:24:31;101966.33;;;16.46;31.18
70916;BME280;58557;50.982;-3.222;2023-04-04T12:26:56;101965.28;;;17.52;29.56
70916;BME280;58557;50.982;-3.222;2023-04-04T12:29:22;101962.18;;;17.58;30.06
70916;BME280;58557;50.982;-3.222;2023-04-04T12:31:47;101963.55;;;18.14;28.76
70916;BME280;58557;50.982;-3.222;2023-04-04T12:34:15;101964.59;;;18.61;29.07
70916;BME280;58557;50.982;-3.222;2023-04-04T12:36:37;101966.71;;;17.48;29.55
70916;BME280;58557;50.982;-3.222;2023-04-04T12:39:05;101960.12;;;16.22;31.66
70916;BME280;58557;50.982;-3.222;2023-04-04T12:41:28;101957.10;;;17.30;31.36
70916;BME280;58557;50.982;-3.222;2023-04-04T12:43:59;101953.68;;;16.08;31.14